Time;durP1;ratioP1;P1;durP2;ratioP2;P2;SDS_P1;SDS_P2;PMS_P1;PMS_P2;Temp;Humidity;BMP_temperature;BMP_pressure;BME280_temperature;BME280_humidity;BME280_pressure;Samples;Min_cycle;Max_cycle;Signal;HPM_P1;HPM_P2
2023/03/09 00:00:55;;;;;;;6.60;6.10;;;;;;;11.75;59.37;98880.53;5054767;28;20195;-68
2023/03/09 00:03:22;;;;;;;7.67;6.43;;;;;;;11.78;59.43;98882.75;5054667;28;20253;-68
2023/03/09 00:05:54;;;;;;;7.03;6.53;;;;;;;11.76;59.45;98882.16;5067612;28;20193;-68
2023/03/09 00:08:21;;;;;;;5.97;5.47;;;;;;;11.75;59.08;98880.53;5074789;28;20614;-68
2023/03/09 00:10:50;;;;;;;5.33;4.67;;;;;;;11.72;59.03;98880.97;5074627;28;20209;-68
2023/03/09 00:13:17;;;;;;;12.73;8.70;;;;;;;11.71;59.32;98884.66;5068331;28;20661;-68
2023/03/09 00:15:49;;;;;;;41.47;20.33;;;;;;;11.65;59.79;98882.88;5054233;28;20662;-68
2023/03/09 00:18:16;;;;;;;22.73;14.33;;;;;;;11.63;59.69;98882.28;5054799;28;20642;-68
2023/03/09 00:20:43;;;;;;;15.47;10.87;;;;;;;11.64;59.85;98878.56;5054433;28;20325;-68
2023/03/09 00:23:10;;;;;;;9.00;8.03;;;;;;;11.62;59.92;98867.34;5058228;28;20281;-68
2023/03/09 00:25:37;;;;;;;8.70;6.90;;;;;;;11.62;60.46;98864.69;5074338;28;20575;-68
2023/03/09 00:28:04;;;;;;;8.03;6.60;;;;;;;11.64;60.31;98873.25;5074368;28;20189;-69
2023/03/09 00:30:30;;;;;;;5.83;5.33;;;;;;;11.57;60.45;98853.88;5073808;28;20633;-69
2023/03/09 00:32:58;;;;;;;5.43;5.10;;;;;;;11.61;60.13;98860.41;5071284;28;20189;-69
2023/03/09 00:35:25;;;;;;;5.80;5.20;;;;;;;11.56;60.51;98860.19;5053777;28;20658;-68
2023/03/09 00:37:52;;;;;;;6.20;5.63;;;;;;;11.54;60.19;98856.94;5052868;28;20256;-69
2023/03/09 00:40:19;;;;;;;7.03;4.93;;;;;;;11.52;60.35;98853.72;5054420;28;20195;-69
2023/03/09 00:42:46;;;;;;;7.70;5.63;;;;;;;11.51;60.58;98852.06;5067529;28;20612;-70
2023/03/09 00:45:15;;;;;;;9.70;5.80;;;;;;;11.48;60.76;98849.84;5073622;28;20201;-69
2023/03/09 00:47:42;;;;;;;5.63;5.23;;;;;;;11.42;60.85;98848.03;5074005;28;20559;-69
2023/03/09 00:50:11;;;;;;;6.20;5.37;;;;;;;11.33;61.16;98852.00;5073794;28;20565;-69
2023/03/09 00:52:38;;;;;;;5.27;4.60;;;;;;;11.24;60.83;98855.16;5072756;28;20202;-69
2023/03/09 00:55:06;;;;;;;6.47;5.00;;;;;;;11.13;60.91;98843.38;5066196;28;20625;-68
2023/03/09 00:57:33;;;;;;;5.23;4.70;;;;;;;10.96;61.43;98843.06;5053407;28;20574;-68
2023/03/09 00:59:59;;;;;;;5.40;5.03;;;;;;;10.64;62.51;98832.63;5054163;28;20278;-68
2023/03/09 01:02:26;;;;;;;6.40;5.10;;;;;;;10.61;62.58;98839.19;5052524;28;20601;-68
2023/03/09 01:04:53;;;;;;;6.73;5.20;;;;;;;10.71;62.74;98833.41;5053527;28;20255;-68
2023/03/09 01:07:22;;;;;;;5.30;4.80;;;;;;;10.80;62.35;98840.09;5053353;28;20193;-68
2023/03/09 01:09:49;;;;;;;5.73;5.07;;;;;;;10.84;62.35;98849.28;5053178;28;20907;-70
2023/03/09 01:12:15;;;;;;;5.07;4.77;;;;;;;10.86;61.90;98847.22;5053486;28;20584;-69
2023/03/09 01:14:42;;;;;;;7.07;4.53;;;;;;;10.88;61.84;98840.69;5053319;28;20193;-69
2023/03/09 01:17:09;;;;;;;5.17;4.80;;;;;;;10.90;61.84;98837.78;5053110;28;20250;-72
2023/03/09 01:19:35;;;;;;;5.67;4.67;;;;;;;10.90;61.57;98833.28;5053342;28;20733;-68
2023/03/09 01:22:02;;;;;;;4.97;4.60;;;;;;;10.88;61.55;98830.06;5073195;28;20196;-68
2023/03/09 01:24:30;;;;;;;5.43;4.93;;;;;;;10.80;62.06;98832.13;5072858;28;20188;-70
2023/03/09 01:26:57;;;;;;;4.60;4.20;;;;;;;10.77;62.48;98822.75;5072814;28;20195;-69
2023/03/09 01:29:24;;;;;;;4.47;4.17;;;;;;;10.74;62.17;98819.69;5072682;28;20234;-68
2023/03/09 01:31:50;;;;;;;4.13;3.87;;;;;;;10.59;62.47;98808.56;5053142;28;20197;-68
2023/03/09 01:34:17;;;;;;;4.43;4.03;;;;;;;10.46;62.78;98795.34;5052648;28;20668;-68
2023/03/09 01:36:44;;;;;;;4.83;4.53;;;;;;;10.40;63.18;98809.47;5052988;28;20248;-68
2023/03/09 01:39:10;;;;;;;5.13;3.90;;;;;;;10.40;64.14;98814.78;5052681;28;20250;-68
2023/03/09 01:41:39;;;;;;;4.30;4.00;;;;;;;10.40;63.99;98809.47;5052655;28;20188;-68
2023/03/09 01:44:06;;;;;;;4.63;3.90;;;;;;;10.45;64.25;98806.97;5052506;28;20220;-68
2023/03/09 01:46:37;;;;;;;4.57;4.27;;;;;;;10.49;63.72;98802.88;5052699;28;20196;-68
2023/03/09 01:49:12;;;;;;;4.13;3.90;;;;;;;10.52;63.68;98799.81;5052060;28;20185;-68
2023/03/09 01:51:46;;;;;;;4.30;3.87;;;;;;;10.52;64.28;98802.47;5052852;28;20185;-68
2023/03/09 01:54:21;;;;;;;4.07;3.77;;;;;;;10.54;64.30;98798.56;5052945;28;20192;-68
2023/03/09 01:56:52;;;;;;;4.10;3.80;;;;;;;10.53;63.85;98801.44;5052639;28;20189;-69
2023/03/09 01:59:22;;;;;;;3.67;3.47;;;;;;;10.33;64.03;98795.41;5052566;28;20696;-68
2023/03/09 02:01:48;;;;;;;3.13;2.93;;;;;;;10.06;65.12;98784.06;5054482;28;20192;-69
2023/03/09 02:04:22;;;;;;;3.30;3.00;;;;;;;9.97;65.21;98787.16;5072450;28;20223;-69
2023/03/09 02:06:49;;;;;;;2.97;2.77;;;;;;;10.05;65.38;98779.00;5072085;28;20180;-69
2023/03/09 02:09:25;;;;;;;2.70;2.60;;;;;;;10.12;65.04;98782.41;5061339;28;20190;-69
2023/03/09 02:11:53;;;;;;;2.73;2.53;;;;;;;10.19;64.48;98773.44;5052301;28;20192;-68
2023/03/09 02:14:21;;;;;;;2.67;2.50;;;;;;;10.33;64.36;98779.47;5052377;28;20340;-68
2023/03/09 02:16:48;;;;;;;2.80;2.70;;;;;;;10.41;64.09;98777.41;5052275;28;20196;-68
2023/03/09 02:19:26;;;;;;;3.03;2.83;;;;;;;10.51;64.39;98782.25;5061703;28;20195;-68
2023/03/09 02:21:55;;;;;;;2.60;2.50;;;;;;;10.53;64.15;98777.53;5069434;28;20233;-68
2023/03/09 02:24:29;;;;;;;4.40;2.87;;;;;;;10.51;64.34;98782.25;5052159;28;20227;-68
2023/03/09 02:27:00;;;;;;;2.50;2.30;;;;;;;10.62;63.88;98781.59;5051768;28;20579;-69
2023/03/09 02:29:30;;;;;;;2.30;2.20;;;;;;;10.67;63.15;98787.06;5063853;28;20196;-67
2023/03/09 02:31:57;;;;;;;2.73;2.53;;;;;;;10.67;63.18;98774.59;5072115;28;20189;-69
2023/03/09 02:34:24;;;;;;;2.80;2.43;;;;;;;10.64;63.45;98782.16;5072263;28;20197;-67
2023/03/09 02:36:51;;;;;;;2.50;2.40;;;;;;;10.64;63.20;98775.03;5071708;28;20251;-68
2023/03/09 02:39:27;;;;;;;2.80;2.63;;;;;;;10.72;62.77;98760.66;5061308;28;20193;-68
2023/03/09 02:41:56;;;;;;;2.20;2.10;;;;;;;10.74;62.41;98764.75;5051904;28;20261;-68
2023/03/09 02:44:23;;;;;;;2.57;2.37;;;;;;;10.76;62.66;98754.72;5051887;28;20223;-69
2023/03/09 02:46:51;;;;;;;2.50;2.40;;;;;;;10.83;62.45;98752.03;5051875;28;20196;-70
2023/03/09 02:49:19;;;;;;;2.70;2.60;;;;;;;10.92;62.06;98756.03;5051691;28;20239;-68
2023/03/09 02:51:45;;;;;;;3.03;2.53;;;;;;;10.98;61.93;98760.47;5051547;28;20742;-67
2023/03/09 02:54:12;;;;;;;2.67;2.47;;;;;;;11.04;62.06;98764.94;5052171;28;20206;-68
2023/03/09 02:56:39;;;;;;;2.37;2.27;;;;;;;11.07;61.98;98757.34;5053250;28;20251;-68
2023/03/09 02:59:05;;;;;;;2.97;2.77;;;;;;;11.10;61.59;98753.44;5059551;28;20234;-69
2023/03/09 03:01:32;;;;;;;2.50;2.20;;;;;;;11.08;61.22;98750.19;5054358;28;20205;-68
2023/03/09 03:04:00;;;;;;;3.23;2.40;;;;;;;11.15;61.31;98755.44;5055763;28;20651;-68
2023/03/09 03:06:27;;;;;;;3.43;2.40;;;;;;;11.13;61.58;98750.34;5069263;28;20255;-68
2023/03/09 03:08:53;;;;;;;2.30;2.20;;;;;;;11.17;61.34;98753.38;5075511;28;20188;-68
2023/03/09 03:11:20;;;;;;;2.73;2.30;;;;;;;11.17;61.58;98762.16;5075838;28;20245;-69
2023/03/09 03:13:47;;;;;;;3.83;2.33;;;;;;;11.19;61.50;98775.25;5070117;28;20225;-68
2023/03/09 03:16:13;;;;;;;3.07;2.57;;;;;;;11.15;61.37;98771.41;5055627;28;20199;-68
2023/03/09 03:18:40;;;;;;;2.40;2.20;;;;;;;11.17;61.94;98770.13;5055326;28;20259;-68
2023/03/09 03:21:08;;;;;;;4.70;2.57;;;;;;;11.16;61.70;98775.66;5055719;28;20193;-68
2023/03/09 03:23:35;;;;;;;5.30;2.70;;;;;;;11.12;62.41;98767.31;5057871;28;20720;-68
2023/03/09 03:26:06;;;;;;;2.70;2.50;;;;;;;11.04;62.51;98770.25;5075392;28;20204;-68
2023/03/09 03:28:33;;;;;;;2.40;2.30;;;;;;;11.02;62.56;98782.91;5075541;28;20188;-68
2023/03/09 03:30:59;;;;;;;3.17;2.63;;;;;;;10.95;62.43;98787.50;5075359;28;20257;-68
2023/03/09 03:33:27;;;;;;;2.60;2.50;;;;;;;10.93;62.76;98784.22;5073082;28;20243;-69
2023/03/09 03:35:53;;;;;;;2.83;2.63;;;;;;;10.90;62.83;98796.09;5055216;28;20194;-69
2023/03/09 03:38:22;;;;;;;3.77;3.47;;;;;;;10.87;62.46;98795.72;5055279;28;20273;-69
2023/03/09 03:40:48;;;;;;;3.00;2.80;;;;;;;10.84;62.97;98794.31;5055178;28;20193;-69
2023/03/09 03:43:15;;;;;;;2.90;2.70;;;;;;;10.80;62.94;98800.25;5063712;28;20221;-69
2023/03/09 03:45:42;;;;;;;3.03;2.73;;;;;;;10.78;63.39;98797.81;5058763;28;20192;-68
2023/03/09 03:48:09;;;;;;;4.73;3.63;;;;;;;10.77;63.64;98790.88;5054816;28;20247;-69
2023/03/09 03:50:35;;;;;;;5.40;3.70;;;;;;;10.71;63.89;98797.03;5055140;28;20552;-73
2023/03/09 03:53:02;;;;;;;4.40;3.30;;;;;;;10.69;64.08;98792.97;5054583;28;20204;-69
2023/03/09 03:55:30;;;;;;;6.53;3.50;;;;;;;10.72;63.39;98797.84;5054984;28;20335;-69
2023/03/09 03:57:57;;;;;;;4.00;3.40;;;;;;;10.75;62.94;98792.13;5054212;28;20190;-68
2023/03/09 04:00:24;;;;;;;4.37;3.47;;;;;;;10.73;63.49;98804.78;5055050;28;20198;-70
2023/03/09 04:02:51;;;;;;;6.33;3.20;;;;;;;10.64;63.29;98812.22;5054356;28;20326;-69
2023/03/09 04:05:18;;;;;;;3.70;3.40;;;;;;;10.56;62.95;98816.94;5054943;28;20243;-70
2023/03/09 04:07:46;;;;;;;6.23;4.03;;;;;;;10.26;63.86;98813.22;5054322;28;20224;-70
2023/03/09 04:10:12;;;;;;;4.93;3.53;;;;;;;10.15;64.42;98817.34;5055083;28;20576;-67
2023/03/09 04:12:40;;;;;;;2.97;2.83;;;;;;;10.09;64.55;98817.34;5034279;28;20197;-69
2023/03/09 04:15:08;;;;;;;5.40;3.70;;;;;;;10.01;64.95;98810.41;5034479;28;20185;-69
2023/03/09 04:17:35;;;;;;;4.80;3.40;;;;;;;10.02;65.06;98806.75;5034597;28;20254;-71
2023/03/09 04:20:04;;;;;;;4.13;3.27;;;;;;;10.03;64.97;98810.19;5034693;28;20201;-71
2023/03/09 04:22:31;;;;;;;4.43;4.03;;;;;;;9.98;65.30;98805.53;5071899;28;20207;-71
2023/03/09 04:24:57;;;;;;;6.17;4.30;;;;;;;10.03;65.53;98796.94;5074252;28;20571;-69
2023/03/09 04:27:24;;;;;;;8.73;5.10;;;;;;;10.02;65.68;98812.03;5073989;28;20192;-70
2023/03/09 04:29:52;;;;;;;4.50;4.10;;;;;;;9.99;65.06;98817.75;5074021;28;20625;-66
2023/03/09 04:32:19;;;;;;;6.07;3.90;;;;;;;9.99;65.36;98806.31;5056627;28;20197;-74
2023/03/09 04:34:45;;;;;;;6.40;3.97;;;;;;;9.99;65.88;98812.47;5053854;28;20250;-70
2023/03/09 04:37:12;;;;;;;6.00;3.70;;;;;;;10.06;65.33;98812.47;5053757;28;20267;-68
2023/03/09 04:39:39;;;;;;;5.07;4.27;;;;;;;10.05;65.56;98805.53;5054098;28;20188;-68
2023/03/09 04:42:06;;;;;;;9.03;5.37;;;;;;;10.13;65.69;98807.97;5054263;28;20249;-68
2023/03/09 04:44:33;;;;;;;9.00;6.47;;;;;;;10.15;65.59;98811.19;5053982;28;20290;-69
2023/03/09 04:47:01;;;;;;;6.57;5.03;;;;;;;10.13;64.64;98814.06;5053956;28;20192;-69
2023/03/09 04:49:29;;;;;;;5.33;4.93;;;;;;;10.02;65.47;98805.91;5054129;28;20196;-69
2023/03/09 04:51:56;;;;;;;8.37;4.00;;;;;;;9.98;65.59;98804.69;5066804;28;20270;-69
2023/03/09 04:54:23;;;;;;;9.37;4.77;;;;;;;9.99;66.02;98804.50;5073721;28;20675;-68
2023/03/09 04:56:50;;;;;;;15.33;5.47;;;;;;;10.04;66.42;98798.53;5073664;28;20629;-69
2023/03/09 04:59:16;;;;;;;17.73;6.27;;;;;;;9.99;66.79;98798.38;5059373;28;20256;-68
2023/03/09 05:01:43;;;;;;;13.40;5.40;;;;;;;10.00;66.77;98799.97;5052992;28;20701;-68
2023/03/09 05:04:11;;;;;;;39.30;5.60;;;;;;;10.06;67.32;98807.16;5052307;28;20251;-68
2023/03/09 05:06:38;;;;;;;19.43;5.53;;;;;;;10.06;67.10;98807.16;5053415;28;20223;-69
2023/03/09 05:09:05;;;;;;;30.27;5.50;;;;;;;10.04;66.39;98809.16;5055676;28;20189;-69
2023/03/09 05:11:32;;;;;;;28.20;7.00;;;;;;;9.93;67.10;98802.66;5052014;28;20689;-72
2023/03/09 05:13:59;;;;;;;20.60;5.70;;;;;;;9.80;66.81;98809.88;5034079;28;20258;-69
2023/03/09 05:16:25;;;;;;;21.13;6.33;;;;;;;9.55;67.62;98814.16;5044434;28;20197;-69
2023/03/09 05:18:52;;;;;;;14.07;6.23;;;;;;;9.60;67.91;98811.72;5040738;28;20197;-70
2023/03/09 05:21:21;;;;;;;20.37;6.60;;;;;;;9.80;67.69;98804.56;5037657;28;20193;-69
2023/03/09 05:23:47;;;;;;;11.07;6.43;;;;;;;10.02;67.12;98808.56;5031337;28;20285;-71
2023/03/09 05:26:14;;;;;;;15.73;6.17;;;;;;;10.45;65.88;98806.97;5031886;28;20250;-72
2023/03/09 05:28:41;;;;;;;20.73;5.57;;;;;;;11.04;64.07;98807.47;5040533;28;20742;-70
2023/03/09 05:31:09;;;;;;;36.43;8.37;;;;;;;11.57;62.77;98807.81;5038226;28;20267;-69
2023/03/09 05:33:36;;;;;;;18.97;6.83;;;;;;;12.20;59.88;98810.03;5046753;28;20280;-70
2023/03/09 05:36:03;;;;;;;15.13;6.70;;;;;;;12.41;57.63;98817.56;5031141;28;20201;-71
2023/03/09 05:38:31;;;;;;;11.40;5.83;;;;;;;12.63;55.61;98821.41;5038684;28;20626;-71
2023/03/09 05:40:57;;;;;;;27.67;7.60;;;;;;;13.05;54.92;98824.91;5037181;28;20196;-70
2023/03/09 05:43:24;;;;;;;15.90;5.93;;;;;;;13.42;53.15;98813.88;5047208;28;20261;-71
2023/03/09 05:45:55;;;;;;;12.83;6.00;;;;;;;13.93;52.48;98807.84;5030514;28;20232;-69
2023/03/09 05:48:22;;;;;;;13.07;6.40;;;;;;;14.39;50.76;98811.28;5039094;28;20198;-71
2023/03/09 05:50:48;;;;;;;14.87;5.97;;;;;;;14.95;47.68;98819.28;5038419;28;20200;-70
2023/03/09 05:53:16;;;;;;;19.27;5.97;;;;;;;15.15;47.31;98824.19;5045645;28;20205;-68
2023/03/09 05:55:44;;;;;;;29.13;6.47;;;;;;;15.37;46.95;98833.97;5034704;28;20200;-69
2023/03/09 05:58:10;;;;;;;20.23;7.77;;;;;;;15.86;45.79;98838.47;5041959;28;20200;-66
2023/03/09 06:00:37;;;;;;;59.13;9.80;;;;;;;16.45;44.11;98836.13;5041160;28;20205;-70
2023/03/09 06:03:04;;;;;;;42.10;8.90;;;;;;;16.85;43.83;98826.66;5043257;28;20204;-70
2023/03/09 06:05:31;;;;;;;31.37;7.70;;;;;;;17.21;41.53;98831.31;5051893;28;20254;-71
2023/03/09 06:07:57;;;;;;;49.50;8.17;;;;;;;17.42;41.26;98829.63;5052144;28;20193;-71
2023/03/09 06:10:24;;;;;;;40.20;9.43;;;;;;;17.55;40.81;98823.81;5052899;28;20331;-71
2023/03/09 06:12:52;;;;;;;24.03;7.03;;;;;;;17.85;39.95;98827.53;5051904;28;20206;-70
2023/03/09 06:15:19;;;;;;;20.03;5.63;;;;;;;18.05;40.80;98826.88;5051853;28;20200;-69
2023/03/09 06:17:45;;;;;;;13.47;5.10;;;;;;;19.12;67.02;98806.31;5051691;28;20269;-69
2023/03/09 06:20:13;;;;;;;22.97;5.10;;;;;;;20.05;56.58;98813.84;5052015;28;20246;-67
2023/03/09 06:22:40;;;;;;;20.87;7.00;;;;;;;20.18;37.07;98826.78;5048217;28;20192;-67
2023/03/09 06:25:08;;;;;;;16.87;5.33;;;;;;;20.93;43.07;98834.59;5047195;28;20220;-67
2023/03/09 06:27:35;;;;;;;14.53;5.23;;;;;;;21.49;40.47;98829.63;5051444;28;20196;-67
2023/03/09 06:30:05;;;;;;;15.27;6.30;;;;;;;21.91;36.73;98846.88;5049022;28;20192;-70
2023/03/09 06:32:33;;;;;;;28.07;8.53;;;;;;;22.20;33.20;98854.94;5050607;28;20189;-67
2023/03/09 06:34:59;;;;;;;20.93;6.90;;;;;;;22.33;36.54;98848.88;5041270;28;20284;-68
2023/03/09 06:37:26;;;;;;;14.93;7.10;;;;;;;22.65;36.25;98851.75;5040123;28;20196;-68
2023/03/09 06:39:53;;;;;;;24.57;10.63;;;;;;;22.83;31.33;98849.09;5035894;28;20738;-68
2023/03/09 06:42:20;;;;;;;27.97;9.27;;;;;;;22.24;30.17;98850.59;5037797;28;20197;-68
2023/03/09 06:44:47;;;;;;;20.30;7.70;;;;;;;22.21;33.30;98841.13;5050134;28;20703;-67
2023/03/09 06:47:15;;;;;;;20.23;7.93;;;;;;;22.37;33.96;98831.75;5050739;28;20636;-68
2023/03/09 06:49:42;;;;;;;25.00;10.37;;;;;;;22.50;33.40;98835.72;5059139;28;20249;-69
2023/03/09 06:52:09;;;;;;;15.07;8.60;;;;;;;22.56;33.69;98832.66;5051249;28;20193;-68
2023/03/09 06:54:36;;;;;;;25.10;8.57;;;;;;;22.63;32.68;98830.41;5050369;28;20197;-67
2023/03/09 06:57:03;;;;;;;38.90;9.45;;;;;;;22.66;30.44;98826.31;5050426;28;20435;-70
2023/03/09 06:59:29;;;;;;;25.63;8.07;;;;;;;22.44;29.51;98824.13;5049823;28;20225;-68
2023/03/09 07:01:56;;;;;;;20.40;7.50;;;;;;;21.88;30.29;98828.50;5049279;28;20634;-69
2023/03/09 07:04:24;;;;;;;32.37;7.80;;;;;;;21.37;31.47;98831.88;5048820;28;20275;-68
2023/03/09 07:06:51;;;;;;;24.87;7.17;;;;;;;21.00;30.62;98832.41;5058785;28;20684;-67
2023/03/09 07:09:18;;;;;;;10.97;6.43;;;;;;;20.85;31.54;98840.53;5046947;28;20196;-68
2023/03/09 07:11:45;;;;;;;18.40;8.87;;;;;;;20.73;31.59;98840.06;5050414;28;20254;-69
2023/03/09 07:14:11;;;;;;;29.57;10.60;;;;;;;20.40;31.79;98843.44;5050693;28;20201;-68
2023/03/09 07:16:38;;;;;;;30.80;8.87;;;;;;;20.25;32.50;98836.19;5050705;28;20638;-68
2023/03/09 07:19:05;;;;;;;28.03;8.17;;;;;;;20.16;32.74;98837.03;5054490;28;20196;-68
2023/03/09 07:21:33;;;;;;;21.17;9.70;;;;;;;20.12;32.80;98823.28;5070538;28;20192;-67
2023/03/09 07:23:59;;;;;;;16.13;8.80;;;;;;;20.27;33.52;98833.22;5054471;28;20261;-67
2023/03/09 07:26:27;;;;;;;14.00;6.67;;;;;;;20.18;33.92;98826.78;5050062;28;20684;-68
2023/03/09 07:28:53;;;;;;;5.73;4.40;;;;;;;20.09;34.54;98828.41;5050123;28;20206;-66
2023/03/09 07:31:20;;;;;;;11.73;4.77;;;;;;;19.99;36.53;98833.81;5050715;28;20675;-70
2023/03/09 07:33:49;;;;;;;4.53;3.77;;;;;;;19.71;34.26;98823.59;5051836;28;20196;-70
2023/03/09 07:36:16;;;;;;;21.27;10.33;;;;;;;19.69;36.05;98823.06;5050345;28;20565;-68
2023/03/09 07:38:44;;;;;;;19.93;11.30;;;;;;;19.71;36.42;98820.91;5050467;28;20194;-71
2023/03/09 07:41:10;;;;;;;15.43;9.00;;;;;;;19.59;39.54;98817.66;5050841;28;20260;-68
2023/03/09 07:43:43;;;;;;;31.00;11.30;;;;;;;19.53;37.01;98814.16;5048582;28;20199;-66
2023/03/09 07:46:10;;;;;;;13.03;6.90;;;;;;;19.46;36.69;98807.44;5049077;28;20214;-68
2023/03/09 07:48:38;;;;;;;22.47;9.13;;;;;;;19.36;37.17;98807.44;5055897;28;20217;-68
2023/03/09 07:51:05;;;;;;;12.80;6.93;;;;;;;19.41;43.46;98802.06;5074177;28;20516;-69
2023/03/09 07:53:33;;;;;;;10.97;6.97;;;;;;;19.46;40.21;98802.06;5063663;28;20197;-73
2023/03/09 07:56:03;;;;;;;9.20;6.30;;;;;;;19.44;37.35;98812.31;5054694;28;20194;-72
2023/03/09 07:58:30;;;;;;;18.17;6.47;;;;;;;19.70;37.91;98803.94;5053632;28;20258;-69
2023/03/09 08:00:58;;;;;;;15.50;5.77;;;;;;;20.12;39.97;98817.91;5053634;28;20196;-68
2023/03/09 08:03:25;;;;;;;8.17;5.60;;;;;;;20.35;37.87;98819.19;5053525;28;20235;-70
2023/03/09 08:05:55;;;;;;;15.50;6.00;;;;;;;20.69;36.38;98817.41;5053721;28;20279;-67
2023/03/09 08:08:22;;;;;;;12.03;5.60;;;;;;;20.73;35.17;98818.47;5053951;28;20546;-68
2023/03/09 08:10:49;;;;;;;42.63;7.57;;;;;;;20.73;34.71;98813.06;5053451;28;20199;-69
2023/03/09 08:13:17;;;;;;;20.40;4.90;;;;;;;20.47;35.11;98803.50;5052573;28;20261;-68
2023/03/09 08:15:44;;;;;;;53.17;8.83;;;;;;;20.35;35.75;98805.69;5056396;28;20255;-68
2023/03/09 08:18:12;;;;;;;13.70;5.70;;;;;;;20.16;36.71;98801.97;5057376;28;20508;-72
2023/03/09 08:20:39;;;;;;;17.57;6.03;;;;;;;20.57;35.95;98806.13;5053051;28;20196;-70
2023/03/09 08:23:07;;;;;;;77.33;8.87;;;;;;;20.91;34.77;98807.09;5053114;28;20219;-71
2023/03/09 08:25:34;;;;;;;26.03;5.57;;;;;;;21.26;34.89;98812.22;5059595;28;20216;-69
2023/03/09 08:28:01;;;;;;;8.97;5.30;;;;;;;21.59;34.46;98806.03;5053694;28;20552;-68
2023/03/09 08:30:29;;;;;;;16.73;5.13;;;;;;;21.91;33.79;98800.88;5053447;28;20664;-69
2023/03/09 08:32:56;;;;;;;13.53;5.27;;;;;;;22.19;33.61;98804.66;5053416;28;20197;-70
2023/03/09 08:35:25;;;;;;;5.13;4.73;;;;;;;22.36;31.75;98797.69;5051729;28;20250;-69
2023/03/09 08:37:52;;;;;;;20.93;4.93;;;;;;;22.49;33.11;98791.59;5033429;28;20576;-70
2023/03/09 08:40:19;;;;;;;12.47;4.37;;;;;;;22.56;31.63;98800.19;5046527;28;20226;-71
2023/03/09 08:42:46;;;;;;;4.97;4.10;;;;;;;22.38;32.71;98797.41;5047584;28;20197;-70
2023/03/09 08:45:13;;;;;;;4.73;3.83;;;;;;;22.21;32.05;98802.47;5048799;28;20228;-69
2023/03/09 08:47:41;;;;;;;4.97;3.70;;;;;;;22.35;33.02;98796.06;5063130;28;20193;-70
2023/03/09 08:50:09;;;;;;;7.30;3.93;;;;;;;22.50;32.86;98801.31;5057448;28;20667;-71
2023/03/09 08:52:39;;;;;;;13.27;4.80;;;;;;;22.51;31.77;98802.97;5055375;28;20258;-70
2023/03/09 08:55:07;;;;;;;8.53;4.60;;;;;;;22.48;31.40;98791.88;5059028;28;20726;-70
2023/03/09 08:57:34;;;;;;;14.57;4.07;;;;;;;21.99;32.15;98789.44;5052818;28;20193;-69
2023/03/09 09:00:01;;;;;;;4.77;3.60;;;;;;;21.93;32.66;98793.28;5060846;28;20232;-68
2023/03/09 09:02:28;;;;;;;5.93;2.93;;;;;;;21.95;32.45;98793.00;5052946;28;20201;-67
2023/03/09 09:04:56;;;;;;;9.63;2.90;;;;;;;22.13;33.62;98801.19;5053025;28;20262;-69
2023/03/09 09:07:22;;;;;;;9.50;3.50;;;;;;;22.30;32.57;98800.75;5053002;28;20250;-68
2023/03/09 09:09:50;;;;;;;4.50;3.40;;;;;;;22.31;30.60;98803.16;5049763;28;20220;-69
2023/03/09 09:12:16;;;;;;;5.63;3.63;;;;;;;22.37;32.67;98791.16;5051309;28;20279;-67
2023/03/09 09:14:43;;;;;;;14.10;4.17;;;;;;;22.50;31.91;98790.50;5049040;28;20246;-68
2023/03/09 09:17:11;;;;;;;13.00;4.73;;;;;;;22.32;31.70;98783.13;5048879;28;20196;-68
2023/03/09 09:19:38;;;;;;;9.53;4.30;;;;;;;22.28;31.11;98787.50;5052160;28;20193;-69
2023/03/09 09:22:08;;;;;;;49.17;7.50;;;;;;;22.09;31.38;98778.50;5054381;28;20184;-69
2023/03/09 09:24:37;;;;;;;5.17;4.60;;;;;;;22.14;31.76;98778.47;5067703;28;20240;-68
2023/03/09 09:27:04;;;;;;;5.10;3.83;;;;;;;22.29;30.86;98775.56;5051355;28;20240;-69
2023/03/09 09:29:31;;;;;;;7.27;4.23;;;;;;;22.40;30.47;98768.94;5052563;28;20197;-67
2023/03/09 09:31:58;;;;;;;10.70;3.87;;;;;;;22.49;29.50;98761.81;5051796;28;20204;-67
2023/03/09 09:34:25;;;;;;;20.80;4.77;;;;;;;22.50;29.16;98768.84;5052744;28;20287;-69
2023/03/09 09:36:52;;;;;;;12.37;4.27;;;;;;;22.38;28.83;98759.50;5051320;28;20201;-69
2023/03/09 09:39:20;;;;;;;9.23;3.83;;;;;;;22.41;30.71;98761.66;5051017;28;20196;-68
2023/03/09 09:41:50;;;;;;;30.20;4.37;;;;;;;22.57;28.92;98752.22;5051767;28;20204;-70
2023/03/09 09:44:19;;;;;;;11.47;4.80;;;;;;;22.69;29.02;98756.13;5042410;28;20192;-70
2023/03/09 09:46:47;;;;;;;12.97;4.20;;;;;;;22.80;28.86;98768.44;5051959;28;20286;-68
2023/03/09 09:49:19;;;;;;;11.70;3.63;;;;;;;22.83;29.25;98765.13;5051976;28;20205;-69
2023/03/09 09:52:06;;;;;;;8.07;4.00;;;;;;;22.67;28.90;98758.31;5051656;28;20854;-70
2023/03/09 09:54:40;;;;;;;16.30;4.93;;;;;;;22.40;29.14;98751.91;5034753;28;20196;-70
2023/03/09 09:57:14;;;;;;;26.73;4.33;;;;;;;22.25;29.79;98736.66;5052199;28;20230;-70
2023/03/09 09:59:43;;;;;;;3.63;2.53;;;;;;;22.14;29.72;98748.72;5049824;28;20280;-69
2023/03/09 10:02:29;;;;;;;9.90;3.87;;;;;;;22.28;29.59;98744.19;5052107;28;20715;-67
2023/03/09 10:05:02;;;;;;;49.93;6.23;;;;;;;22.23;30.12;98740.75;5053575;28;20644;-68
2023/03/09 10:07:31;;;;;;;16.73;3.47;;;;;;;22.53;29.83;98740.38;5048039;28;20197;-70
2023/03/09 10:10:03;;;;;;;27.93;3.90;;;;;;;22.74;29.48;98726.28;5055121;28;20576;-69
2023/03/09 10:12:30;;;;;;;3.90;3.40;;;;;;;22.81;29.37;98725.91;5043613;28;20665;-70
2023/03/09 10:15:03;;;;;;;2.93;2.43;;;;;;;22.79;29.04;98718.06;5051901;28;20557;-69
2023/03/09 10:17:36;;;;;;;6.70;2.80;;;;;;;22.67;29.38;98712.28;5060567;28;20234;-70
2023/03/09 10:20:12;;;;;;;3.63;2.87;;;;;;;22.56;29.61;98710.84;5065855;28;20751;-70
2023/03/09 10:22:40;;;;;;;13.63;3.60;;;;;;;22.64;29.53;98704.78;5051335;28;20188;-71
2023/03/09 10:25:12;;;;;;;8.77;4.07;;;;;;;22.88;29.44;98691.94;5048230;28;20224;-72
2023/03/09 10:27:42;;;;;;;11.03;3.23;;;;;;;23.10;28.78;98692.13;5071268;28;20240;-69
2023/03/09 10:30:20;;;;;;;5.20;2.77;;;;;;;22.76;29.07;98688.06;5065231;28;20656;-68
2023/03/09 10:32:53;;;;;;;21.47;3.73;;;;;;;22.82;29.21;98685.00;5038602;28;20185;-69
2023/03/09 10:35:23;;;;;;;4.33;2.63;;;;;;;22.89;28.54;98688.13;5054472;28;20730;-67
2023/03/09 10:37:52;;;;;;;4.70;3.40;;;;;;;22.90;28.65;98689.75;5051735;28;20185;-67
2023/03/09 10:40:22;;;;;;;3.37;3.07;;;;;;;23.00;28.82;98686.06;5051259;28;20193;-66
2023/03/09 10:42:49;;;;;;;2.43;2.33;;;;;;;22.98;28.44;98686.34;5055906;28;20184;-68
2023/03/09 10:45:25;;;;;;;6.37;3.20;;;;;;;23.04;28.35;98670.84;5067093;28;20278;-65
2023/03/09 10:47:54;;;;;;;2.70;2.30;;;;;;;22.91;28.45;98666.97;5052289;28;20190;-67
2023/03/09 10:50:23;;;;;;;8.23;2.73;;;;;;;22.77;28.76;98649.88;5052105;28;20727;-67
2023/03/09 10:52:50;;;;;;;8.30;3.20;;;;;;;22.67;28.73;98650.00;5051545;28;20336;-68
2023/03/09 10:55:48;;;;;;;4.20;2.50;;;;;;;22.59;28.57;98641.78;5050980;28;20188;-69
2023/03/09 10:58:18;;;;;;;4.10;2.43;;;;;;;22.54;28.69;98637.22;4987708;28;20670;-69
2023/03/09 11:00:56;;;;;;;20.00;3.57;;;;;;;22.28;29.82;98629.75;5040080;28;20246;-70
2023/03/09 11:03:24;;;;;;;7.40;2.73;;;;;;;22.34;28.74;98628.59;5071015;28;20648;-69
2023/03/09 11:05:51;;;;;;;10.23;5.07;;;;;;;22.42;29.27;98619.81;5061591;28;20216;-69
2023/03/09 11:08:27;;;;;;;5.13;2.37;;;;;;;21.99;28.38;98624.47;5052376;28;20227;-71
2023/03/09 11:11:06;;;;;;;5.93;2.20;;;;;;;22.07;28.75;98623.81;5062517;28;20188;-70
2023/03/09 11:13:34;;;;;;;6.07;2.60;;;;;;;22.16;28.52;98616.66;5051176;28;20184;-70
2023/03/09 11:16:14;;;;;;;6.80;5.13;;;;;;;22.41;28.33;98607.38;5051587;28;20197;-68
2023/03/09 11:18:42;;;;;;;2.70;2.30;;;;;;;22.37;27.71;98585.50;5051817;28;20189;-69
2023/03/09 11:21:09;;;;;;;8.73;2.23;;;;;;;22.72;27.91;98597.69;5050491;28;20200;-69
2023/03/09 11:23:39;;;;;;;2.93;2.33;;;;;;;22.88;27.45;98591.75;5054892;28;20188;-68
2023/03/09 11:26:23;;;;;;;6.50;2.90;;;;;;;22.93;27.89;98583.53;5051509;28;20287;-68
2023/03/09 11:28:57;;;;;;;3.60;2.87;;;;;;;23.02;27.79;98581.72;5055780;28;20186;-71
2023/03/09 11:31:29;;;;;;;5.93;2.90;;;;;;;22.89;28.02;98574.38;5064291;28;20254;-68
2023/03/09 11:33:58;;;;;;;4.10;2.77;;;;;;;22.76;27.91;98571.63;5063777;28;20238;-69